< < Back
Terminal Aerodrome Forecast


Current Version              Previous Versions:   1  2  3  4  5  6  7  8  9  

Terminal Aerodrome Forecast

002
FTUS42 KMLB 281435 AAA
TAFMCO
TAF AMD
KMCO 281435Z 2815/2912 16005KT P6SM FEW030
     FM281600 18008KT P6SM SCT050
     FM290200 15003KT P6SM SKC=

Latest METAR

677
SAUS70 KWBC 290000
MTRMCO
METAR KMCO 282353Z 17005KT 10SM FEW055 SCT300 32/21 A3000 RMK AO2 SLP158
CB DSNT S MOV NW T03170211 10356 20317 55001


USA.gov is the U.S. government's official web portal to all federal, state and local government web resources and services.